Lewisport, KY

4:19 PM CST en Enero 25, 2015 (GMT -0600)
RMR - Owensboro | Change Station
CLOSE
Current Station
Estación meteorológica personal
Location: Owensboro, KY
Altura: 387 ft
Estaciones meteorológicas cercanas

Alt 387 ft 37.83 °N, 87.02 °W | Updated 10 minutes ago

Lluvia
Lluvia
42.3 ° F
Sensación térmica 42 ° F
N
0.0
Viento Variable Viento desde ONO
Gusts 0.0 mph

Hoy
Alta -- | Baja -- ° F
--% Posibilidad de precipitaciones
Ayer
Alta -- | Baja -- ° F
Precip. -- pul
6:57 AM 5:03 PM
Creciente, 36% visible
Presión 29.63 pul
Visibilidad 5.0 Millas
Nubes Baja 2100 ft
Nublado 3400 ft
Vientos helados 42 ° F
Punto de rocío 40 ° F
Humedad 91%
Precipitaciones 0.15 pul
Espesor de la nieve No disponible.
UV 0 de una escala de 12
Polen .10 de una escala de 12
Calidad del aire No disponible.
Flu Activity No disponible.
METAR KOWB 252156Z 23007KT 5SM -RA BR FEW021 OVC034 06/04 A2962 RMK AO2 T00550044 P0004 SLP033

More Conditions Fewer Conditions

Presión 29.63 pul
Visibilidad 5.0 Millas
Nubes Baja 2100 ft
Nublado 3400 ft
Vientos helados 42 ° F
Punto de rocío 40 ° F
Humedad 91%
Precipitaciones 0.15 pul
Espesor de la nieve No disponible.
UV 0 de una escala de 12
Polen .10 de una escala de 12
Calidad del aire No disponible.
Flu Activity No disponible.
METAR KOWB 252156Z 23007KT 5SM -RA BR FEW021 OVC034 06/04 A2962 RMK AO2 T00550044 P0004 SLP033

More Conditions Fewer Conditions

10-Day Weather Forecast

Almanac

Astronomía

Jan. 25, 2015 Salida Puesta
Hora real
Crepúsculo civil
Crepúsculo náutico
Crepúsculo astronómico
Luna
Horas de luz
Horas de luz
Tomorrow will be .
, % of the Moon is Illuminated

Extremos de hoy

Máximos del estado Bajos del estado

Community

WunderPhotos

Upload Photos

1,790,072 ¡fotos cargadas!

WunderBlogs® & News

Nearby

Calidad del aire

  Calidad del aire Índice AQ Contaminante
Not available.

Grosos de nieve

Estación Profundido Altura

Actividad de terremotos

Ciudad Distance Mag. Tiempo y dato
Magnitud mínima muestra es 2,5.

Temperaturas de aguas costeras

Lugar Temperatura

Estaciones meteorológicas cercanas